Alicante, Spain
Current Conditions -  °F | °C
As of 9:30 AM on Saturday 25 Oct 2014 (Local Time) from LEAL Reporting Station
Clear Clear  
Wind Chill: 59°   Ceiling: Unl
Heat Index: 59°   Visibility: 6mi
Dew Point: 46°   Wind: 1mph
Humidity: 63%   Direction: NA
Pressure: 30.09"   Gusts: NA
Location:  38.36°N, 0.52°W
Report Text: LEAL 250730Z VRB01KT CAVOK 15/08 Q1019 NOSIG
Loading
Personal Weather Stations






























Interactive Weather Map
Tropical Storm Tracking
New forecast layout! Learn more

10-Day Weather Forecast

Advertisements
Track Severe Weather on mobile